sensor_id;sensor_type;location;lat;lon;timestamp;temperature;humidity
5392;DHT22;2719;53.624;9.786;2022-11-15T00:01:52;9.30;99.90
5392;DHT22;2719;53.624;9.786;2022-11-15T00:04:19;9.20;99.90
5392;DHT22;2719;53.624;9.786;2022-11-15T00:06:46;9.20;99.90
5392;DHT22;2719;53.624;9.786;2022-11-15T00:09:13;9.10;99.90
5392;DHT22;2719;53.624;9.786;2022-11-15T00:11:39;9.10;99.90
5392;DHT22;2719;53.624;9.786;2022-11-15T00:14:06;9.00;99.90
5392;DHT22;2719;53.624;9.786;2022-11-15T00:16:33;9.00;99.90
5392;DHT22;2719;53.624;9.786;2022-11-15T00:18:59;9.00;99.90
5392;DHT22;2719;53.624;9.786;2022-11-15T00:21:27;9.10;99.90
5392;DHT22;2719;53.624;9.786;2022-11-15T00:23:54;9.00;99.90
5392;DHT22;2719;53.624;9.786;2022-11-15T00:26:21;9.10;99.90
5392;DHT22;2719;53.624;9.786;2022-11-15T00:28:47;9.10;99.90
5392;DHT22;2719;53.624;9.786;2022-11-15T00:31:14;9.10;99.90
5392;DHT22;2719;53.624;9.786;2022-11-15T00:33:43;9.00;99.90
5392;DHT22;2719;53.624;9.786;2022-11-15T00:36:10;9.10;99.90
5392;DHT22;2719;53.624;9.786;2022-11-15T00:38:39;9.10;99.90
5392;DHT22;2719;53.624;9.786;2022-11-15T00:41:07;9.20;99.90
5392;DHT22;2719;53.624;9.786;2022-11-15T00:43:34;9.20;99.90
5392;DHT22;2719;53.624;9.786;2022-11-15T00:46:00;9.20;99.90
5392;DHT22;2719;53.624;9.786;2022-11-15T00:48:28;9.20;99.90
5392;DHT22;2719;53.624;9.786;2022-11-15T00:50:54;9.30;99.90
5392;DHT22;2719;53.624;9.786;2022-11-15T00:53:21;9.30;99.90
5392;DHT22;2719;53.624;9.786;2022-11-15T00:55:49;9.30;99.90
5392;DHT22;2719;53.624;9.786;2022-11-15T00:58:16;9.30;99.90
5392;DHT22;2719;53.624;9.786;2022-11-15T01:00:42;9.30;99.90
5392;DHT22;2719;53.624;9.786;2022-11-15T01:03:09;9.30;99.90
5392;DHT22;2719;53.624;9.786;2022-11-15T01:05:37;9.30;99.90
5392;DHT22;2719;53.624;9.786;2022-11-15T01:08:04;9.20;99.90
5392;DHT22;2719;53.624;9.786;2022-11-15T01:10:31;9.20;99.90
5392;DHT22;2719;53.624;9.786;2022-11-15T01:12:58;9.20;99.90
5392;DHT22;2719;53.624;9.786;2022-11-15T01:15:25;9.10;99.90
5392;DHT22;2719;53.624;9.786;2022-11-15T01:17:52;9.20;99.90
5392;DHT22;2719;53.624;9.786;2022-11-15T01:20:18;9.20;99.90
5392;DHT22;2719;53.624;9.786;2022-11-15T01:22:45;9.20;99.90
5392;DHT22;2719;53.624;9.786;2022-11-15T01:25:11;9.20;99.90
5392;DHT22;2719;53.624;9.786;2022-11-15T01:27:39;9.10;99.90
5392;DHT22;2719;53.624;9.786;2022-11-15T01:30:08;9.10;99.90
5392;DHT22;2719;53.624;9.786;2022-11-15T01:32:35;9.20;99.90
5392;DHT22;2719;53.624;9.786;2022-11-15T01:35:01;9.20;99.90
5392;DHT22;2719;53.624;9.786;2022-11-15T01:37:28;9.20;99.90
5392;DHT22;2719;53.624;9.786;2022-11-15T01:39:55;9.20;99.90
5392;DHT22;2719;53.624;9.786;2022-11-15T01:42:21;9.20;99.90
5392;DHT22;2719;53.624;9.786;2022-11-15T01:44:49;9.10;99.90
5392;DHT22;2719;53.624;9.786;2022-11-15T01:47:22;9.10;99.90
5392;DHT22;2719;53.624;9.786;2022-11-15T01:49:54;9.10;99.90
5392;DHT22;2719;53.624;9.786;2022-11-15T01:52:24;9.10;99.90
5392;DHT22;2719;53.624;9.786;2022-11-15T01:54:56;9.10;99.90
5392;DHT22;2719;53.624;9.786;2022-11-15T01:57:23;9.10;99.90
5392;DHT22;2719;53.624;9.786;2022-11-15T01:59:50;9.10;99.90
5392;DHT22;2719;53.624;9.786;2022-11-15T02:02:18;9.00;99.90
5392;DHT22;2719;53.624;9.786;2022-11-15T02:04:46;9.00;99.90
5392;DHT22;2719;53.624;9.786;2022-11-15T02:07:16;9.10;99.90
5392;DHT22;2719;53.624;9.786;2022-11-15T02:09:43;9.00;99.90
5392;DHT22;2719;53.624;9.786;2022-11-15T02:12:13;9.00;99.90
5392;DHT22;2719;53.624;9.786;2022-11-15T02:14:42;9.10;99.90
5392;DHT22;2719;53.624;9.786;2022-11-15T02:17:28;9.10;99.90
5392;DHT22;2719;53.624;9.786;2022-11-15T02:20:14;9.10;99.90
5392;DHT22;2719;53.624;9.786;2022-11-15T02:22:58;9.10;99.90
5392;DHT22;2719;53.624;9.786;2022-11-15T02:25:38;9.10;99.90
5392;DHT22;2719;53.624;9.786;2022-11-15T02:28:23;9.10;99.90
5392;DHT22;2719;53.624;9.786;2022-11-15T02:33:42;9.10;99.90
5392;DHT22;2719;53.624;9.786;2022-11-15T02:36:18;9.10;99.90
5392;DHT22;2719;53.624;9.786;2022-11-15T02:38:54;9.10;99.90
5392;DHT22;2719;53.624;9.786;2022-11-15T02:41:30;9.10;99.90
5392;DHT22;2719;53.624;9.786;2022-11-15T02:44:02;9.10;99.90
5392;DHT22;2719;53.624;9.786;2022-11-15T02:46:35;9.10;99.90
5392;DHT22;2719;53.624;9.786;2022-11-15T02:49:22;9.00;99.90
5392;DHT22;2719;53.624;9.786;2022-11-15T02:51:51;9.00;99.90
5392;DHT22;2719;53.624;9.786;2022-11-15T02:54:20;9.00;99.90
5392;DHT22;2719;53.624;9.786;2022-11-15T02:56:50;9.00;99.90
5392;DHT22;2719;53.624;9.786;2022-11-15T02:59:43;9.00;99.90
5392;DHT22;2719;53.624;9.786;2022-11-15T03:02:21;9.00;99.90
5392;DHT22;2719;53.624;9.786;2022-11-15T03:04:55;8.90;99.90
5392;DHT22;2719;53.624;9.786;2022-11-15T03:07:25;8.90;99.90
5392;DHT22;2719;53.624;9.786;2022-11-15T03:09:58;8.90;99.90
5392;DHT22;2719;53.624;9.786;2022-11-15T03:12:36;8.90;99.90
5392;DHT22;2719;53.624;9.786;2022-11-15T03:15:11;8.80;99.90
5392;DHT22;2719;53.624;9.786;2022-11-15T03:17:44;8.70;99.90
5392;DHT22;2719;53.624;9.786;2022-11-15T03:20:16;8.70;99.90
5392;DHT22;2719;53.624;9.786;2022-11-15T03:22:44;8.70;99.90
5392;DHT22;2719;53.624;9.786;2022-11-15T03:25:16;8.70;99.90
5392;DHT22;2719;53.624;9.786;2022-11-15T03:27:47;8.70;99.90
5392;DHT22;2719;53.624;9.786;2022-11-15T03:30:15;8.60;99.90
5392;DHT22;2719;53.624;9.786;2022-11-15T03:32:46;8.60;99.90
5392;DHT22;2719;53.624;9.786;2022-11-15T03:35:17;8.60;99.90
5392;DHT22;2719;53.624;9.786;2022-11-15T03:37:51;8.60;99.90
5392;DHT22;2719;53.624;9.786;2022-11-15T03:40:22;8.60;99.90
5392;DHT22;2719;53.624;9.786;2022-11-15T03:42:58;8.50;99.90
5392;DHT22;2719;53.624;9.786;2022-11-15T03:45:29;8.50;99.90
5392;DHT22;2719;53.624;9.786;2022-11-15T03:48:02;8.50;99.90
5392;DHT22;2719;53.624;9.786;2022-11-15T03:50:29;8.50;99.90
5392;DHT22;2719;53.624;9.786;2022-11-15T03:52:57;8.40;99.90
5392;DHT22;2719;53.624;9.786;2022-11-15T03:55:25;8.40;99.90
5392;DHT22;2719;53.624;9.786;2022-11-15T03:57:54;8.40;99.90
5392;DHT22;2719;53.624;9.786;2022-11-15T04:00:22;8.40;99.90
5392;DHT22;2719;53.624;9.786;2022-11-15T04:02:49;8.40;99.90
5392;DHT22;2719;53.624;9.786;2022-11-15T04:05:18;8.40;99.90
5392;DHT22;2719;53.624;9.786;2022-11-15T04:07:44;8.40;99.90
5392;DHT22;2719;53.624;9.786;2022-11-15T04:10:12;8.40;99.90
5392;DHT22;2719;53.624;9.786;2022-11-15T04:12:41;8.40;99.90
5392;DHT22;2719;53.624;9.786;2022-11-15T04:15:11;8.50;99.90
5392;DHT22;2719;53.624;9.786;2022-11-15T04:17:40;8.50;99.90
5392;DHT22;2719;53.624;9.786;2022-11-15T04:20:10;8.50;99.90
5392;DHT22;2719;53.624;9.786;2022-11-15T04:22:57;8.50;99.90
5392;DHT22;2719;53.624;9.786;2022-11-15T04:25:42;8.50;99.90
5392;DHT22;2719;53.624;9.786;2022-11-15T04:28:09;8.50;99.90
5392;DHT22;2719;53.624;9.786;2022-11-15T04:30:36;8.60;99.90
5392;DHT22;2719;53.624;9.786;2022-11-15T04:33:03;8.60;99.90
5392;DHT22;2719;53.624;9.786;2022-11-15T04:35:30;8.60;99.90
5392;DHT22;2719;53.624;9.786;2022-11-15T04:37:58;8.60;99.90
5392;DHT22;2719;53.624;9.786;2022-11-15T04:40:24;8.60;99.90
5392;DHT22;2719;53.624;9.786;2022-11-15T04:42:50;8.70;99.90
5392;DHT22;2719;53.624;9.786;2022-11-15T04:45:17;8.70;99.90
5392;DHT22;2719;53.624;9.786;2022-11-15T04:47:44;8.70;99.90
5392;DHT22;2719;53.624;9.786;2022-11-15T04:50:11;8.80;99.90
5392;DHT22;2719;53.624;9.786;2022-11-15T04:52:40;8.70;99.90
5392;DHT22;2719;53.624;9.786;2022-11-15T04:55:09;8.70;99.90
5392;DHT22;2719;53.624;9.786;2022-11-15T04:57:36;8.70;99.90
5392;DHT22;2719;53.624;9.786;2022-11-15T05:00:04;8.70;99.90
5392;DHT22;2719;53.624;9.786;2022-11-15T05:02:31;8.70;99.90
5392;DHT22;2719;53.624;9.786;2022-11-15T05:05:12;8.70;99.90
5392;DHT22;2719;53.624;9.786;2022-11-15T05:07:39;8.60;99.90
5392;DHT22;2719;53.624;9.786;2022-11-15T05:10:07;8.70;99.90
5392;DHT22;2719;53.624;9.786;2022-11-15T05:12:35;8.80;99.90
5392;DHT22;2719;53.624;9.786;2022-11-15T05:15:01;8.80;99.90
5392;DHT22;2719;53.624;9.786;2022-11-15T05:17:28;8.70;99.90
5392;DHT22;2719;53.624;9.786;2022-11-15T05:19:55;8.70;99.90
5392;DHT22;2719;53.624;9.786;2022-11-15T05:22:22;8.80;99.90
5392;DHT22;2719;53.624;9.786;2022-11-15T05:24:48;8.90;99.90
5392;DHT22;2719;53.624;9.786;2022-11-15T05:27:16;8.90;99.90
5392;DHT22;2719;53.624;9.786;2022-11-15T05:29:43;9.00;99.90
5392;DHT22;2719;53.624;9.786;2022-11-15T05:32:12;9.00;99.90
5392;DHT22;2719;53.624;9.786;2022-11-15T05:34:39;9.10;99.90
5392;DHT22;2719;53.624;9.786;2022-11-15T05:37:06;9.00;99.90
5392;DHT22;2719;53.624;9.786;2022-11-15T05:39:33;9.00;99.90
5392;DHT22;2719;53.624;9.786;2022-11-15T05:42:02;9.00;99.90
5392;DHT22;2719;53.624;9.786;2022-11-15T05:44:34;9.00;99.90
5392;DHT22;2719;53.624;9.786;2022-11-15T05:47:01;9.00;99.90
5392;DHT22;2719;53.624;9.786;2022-11-15T05:49:31;9.10;99.90
5392;DHT22;2719;53.624;9.786;2022-11-15T05:52:00;9.10;99.90
5392;DHT22;2719;53.624;9.786;2022-11-15T05:54:28;9.20;99.90
5392;DHT22;2719;53.624;9.786;2022-11-15T05:56:57;9.20;99.90
5392;DHT22;2719;53.624;9.786;2022-11-15T05:59:25;9.20;99.90
5392;DHT22;2719;53.624;9.786;2022-11-15T06:01:53;9.30;99.90
5392;DHT22;2719;53.624;9.786;2022-11-15T06:04:20;9.30;99.90
5392;DHT22;2719;53.624;9.786;2022-11-15T06:06:46;9.30;99.90
5392;DHT22;2719;53.624;9.786;2022-11-15T06:09:13;9.40;99.90
5392;DHT22;2719;53.624;9.786;2022-11-15T06:11:40;9.30;99.90
5392;DHT22;2719;53.624;9.786;2022-11-15T06:14:06;9.40;99.90
5392;DHT22;2719;53.624;9.786;2022-11-15T06:16:33;9.40;99.90
5392;DHT22;2719;53.624;9.786;2022-11-15T06:19:02;9.40;99.90
5392;DHT22;2719;53.624;9.786;2022-11-15T06:21:28;9.40;99.90
5392;DHT22;2719;53.624;9.786;2022-11-15T06:23:55;9.40;99.90
5392;DHT22;2719;53.624;9.786;2022-11-15T06:26:22;9.50;99.90
5392;DHT22;2719;53.624;9.786;2022-11-15T06:28:49;9.50;99.90
5392;DHT22;2719;53.624;9.786;2022-11-15T06:31:15;9.60;99.90
5392;DHT22;2719;53.624;9.786;2022-11-15T06:33:43;9.60;99.90
5392;DHT22;2719;53.624;9.786;2022-11-15T06:36:12;9.60;99.90
5392;DHT22;2719;53.624;9.786;2022-11-15T06:38:42;9.60;99.90
5392;DHT22;2719;53.624;9.786;2022-11-15T06:41:10;9.60;99.90
5392;DHT22;2719;53.624;9.786;2022-11-15T06:43:37;9.70;99.90
5392;DHT22;2719;53.624;9.786;2022-11-15T06:46:06;9.70;99.90
5392;DHT22;2719;53.624;9.786;2022-11-15T06:48:33;9.70;99.90
5392;DHT22;2719;53.624;9.786;2022-11-15T06:51:01;9.70;99.90
5392;DHT22;2719;53.624;9.786;2022-11-15T06:53:30;9.70;99.90
5392;DHT22;2719;53.624;9.786;2022-11-15T06:55:59;9.70;99.90
5392;DHT22;2719;53.624;9.786;2022-11-15T06:58:26;9.70;99.90
5392;DHT22;2719;53.624;9.786;2022-11-15T07:00:53;9.70;99.90
5392;DHT22;2719;53.624;9.786;2022-11-15T07:03:20;9.70;99.90
5392;DHT22;2719;53.624;9.786;2022-11-15T07:05:51;9.80;99.90
5392;DHT22;2719;53.624;9.786;2022-11-15T07:08:19;9.80;99.90
5392;DHT22;2719;53.624;9.786;2022-11-15T07:10:47;9.80;99.90
5392;DHT22;2719;53.624;9.786;2022-11-15T07:13:14;9.80;99.90
5392;DHT22;2719;53.624;9.786;2022-11-15T07:15:41;9.70;99.90
5392;DHT22;2719;53.624;9.786;2022-11-15T07:18:08;9.70;99.90
5392;DHT22;2719;53.624;9.786;2022-11-15T07:20:34;9.70;99.90
5392;DHT22;2719;53.624;9.786;2022-11-15T07:23:02;9.70;99.90
5392;DHT22;2719;53.624;9.786;2022-11-15T07:25:29;9.60;99.90
5392;DHT22;2719;53.624;9.786;2022-11-15T07:27:57;9.60;99.90
5392;DHT22;2719;53.624;9.786;2022-11-15T07:30:25;9.60;99.90
5392;DHT22;2719;53.624;9.786;2022-11-15T07:32:53;9.60;99.90
5392;DHT22;2719;53.624;9.786;2022-11-15T07:35:19;9.70;99.90
5392;DHT22;2719;53.624;9.786;2022-11-15T07:37:53;9.70;99.90
5392;DHT22;2719;53.624;9.786;2022-11-15T07:40:20;9.60;99.90
5392;DHT22;2719;53.624;9.786;2022-11-15T07:42:46;9.40;99.90
5392;DHT22;2719;53.624;9.786;2022-11-15T07:45:20;9.50;99.90
5392;DHT22;2719;53.624;9.786;2022-11-15T07:47:48;9.60;99.90
5392;DHT22;2719;53.624;9.786;2022-11-15T07:50:15;9.50;99.90
5392;DHT22;2719;53.624;9.786;2022-11-15T07:52:42;9.60;99.90
5392;DHT22;2719;53.624;9.786;2022-11-15T07:55:09;9.70;99.90
5392;DHT22;2719;53.624;9.786;2022-11-15T07:57:36;9.80;99.90
5392;DHT22;2719;53.624;9.786;2022-11-15T08:00:04;9.80;99.90
5392;DHT22;2719;53.624;9.786;2022-11-15T08:02:32;9.80;99.90
5392;DHT22;2719;53.624;9.786;2022-11-15T08:04:59;9.90;99.90
5392;DHT22;2719;53.624;9.786;2022-11-15T08:07:29;10.00;99.90
5392;DHT22;2719;53.624;9.786;2022-11-15T08:09:56;9.90;99.90
5392;DHT22;2719;53.624;9.786;2022-11-15T08:12:23;9.80;99.90
5392;DHT22;2719;53.624;9.786;2022-11-15T08:14:50;9.80;99.90
5392;DHT22;2719;53.624;9.786;2022-11-15T08:17:17;9.80;99.90
5392;DHT22;2719;53.624;9.786;2022-11-15T08:19:45;9.90;99.90
5392;DHT22;2719;53.624;9.786;2022-11-15T08:22:12;9.80;99.90
5392;DHT22;2719;53.624;9.786;2022-11-15T08:24:39;9.80;99.90
5392;DHT22;2719;53.624;9.786;2022-11-15T08:27:06;9.70;99.90
5392;DHT22;2719;53.624;9.786;2022-11-15T08:29:40;9.70;99.90
5392;DHT22;2719;53.624;9.786;2022-11-15T08:32:08;9.80;99.90
5392;DHT22;2719;53.624;9.786;2022-11-15T08:34:34;9.80;99.90
5392;DHT22;2719;53.624;9.786;2022-11-15T08:37:02;9.90;99.90
5392;DHT22;2719;53.624;9.786;2022-11-15T08:39:29;9.90;99.90
5392;DHT22;2719;53.624;9.786;2022-11-15T08:41:56;9.90;99.90
5392;DHT22;2719;53.624;9.786;2022-11-15T08:44:23;9.90;99.90
5392;DHT22;2719;53.624;9.786;2022-11-15T08:46:50;9.90;99.90
5392;DHT22;2719;53.624;9.786;2022-11-15T08:49:17;9.90;99.90
5392;DHT22;2719;53.624;9.786;2022-11-15T08:51:43;10.00;99.90
5392;DHT22;2719;53.624;9.786;2022-11-15T08:54:11;9.90;99.90
5392;DHT22;2719;53.624;9.786;2022-11-15T08:56:38;10.00;99.90
5392;DHT22;2719;53.624;9.786;2022-11-15T08:59:05;9.80;99.90
5392;DHT22;2719;53.624;9.786;2022-11-15T09:01:31;9.90;99.90
5392;DHT22;2719;53.624;9.786;2022-11-15T09:03:58;9.90;99.90
5392;DHT22;2719;53.624;9.786;2022-11-15T09:06:25;9.90;99.90
5392;DHT22;2719;53.624;9.786;2022-11-15T09:08:51;9.90;99.90
5392;DHT22;2719;53.624;9.786;2022-11-15T09:11:19;10.00;99.90
5392;DHT22;2719;53.624;9.786;2022-11-15T09:13:47;9.90;99.90
5392;DHT22;2719;53.624;9.786;2022-11-15T09:16:14;10.00;99.90
5392;DHT22;2719;53.624;9.786;2022-11-15T09:18:41;10.10;99.90
5392;DHT22;2719;53.624;9.786;2022-11-15T09:21:08;10.10;99.90
5392;DHT22;2719;53.624;9.786;2022-11-15T09:23:35;10.10;99.90
5392;DHT22;2719;53.624;9.786;2022-11-15T09:26:03;10.10;99.90
5392;DHT22;2719;53.624;9.786;2022-11-15T09:28:32;10.20;99.90
5392;DHT22;2719;53.624;9.786;2022-11-15T09:31:01;10.30;99.90
5392;DHT22;2719;53.624;9.786;2022-11-15T09:33:28;10.30;99.90
5392;DHT22;2719;53.624;9.786;2022-11-15T09:36:00;10.40;99.90
5392;DHT22;2719;53.624;9.786;2022-11-15T09:38:27;10.50;99.90
5392;DHT22;2719;53.624;9.786;2022-11-15T09:41:08;10.40;99.90
5392;DHT22;2719;53.624;9.786;2022-11-15T09:43:47;10.50;99.90
5392;DHT22;2719;53.624;9.786;2022-11-15T09:46:20;10.60;99.90
5392;DHT22;2719;53.624;9.786;2022-11-15T09:48:52;10.60;99.90
5392;DHT22;2719;53.624;9.786;2022-11-15T09:51:29;10.60;99.90
5392;DHT22;2719;53.624;9.786;2022-11-15T09:54:01;10.70;99.90
5392;DHT22;2719;53.624;9.786;2022-11-15T09:56:30;10.70;99.90
5392;DHT22;2719;53.624;9.786;2022-11-15T09:59:08;10.70;99.90
5392;DHT22;2719;53.624;9.786;2022-11-15T10:01:45;10.80;99.90
5392;DHT22;2719;53.624;9.786;2022-11-15T10:04:14;10.90;99.90
5392;DHT22;2719;53.624;9.786;2022-11-15T10:06:46;10.80;99.90
5392;DHT22;2719;53.624;9.786;2022-11-15T10:09:19;10.70;99.90
5392;DHT22;2719;53.624;9.786;2022-11-15T10:11:47;10.70;99.90
5392;DHT22;2719;53.624;9.786;2022-11-15T10:14:18;10.70;99.90
5392;DHT22;2719;53.624;9.786;2022-11-15T10:17:02;10.70;99.90
5392;DHT22;2719;53.624;9.786;2022-11-15T10:19:37;10.70;99.90
5392;DHT22;2719;53.624;9.786;2022-11-15T10:22:19;10.60;99.90
5392;DHT22;2719;53.624;9.786;2022-11-15T10:24:48;10.70;99.90
5392;DHT22;2719;53.624;9.786;2022-11-15T10:27:18;10.70;99.90
5392;DHT22;2719;53.624;9.786;2022-11-15T10:29:49;10.80;99.90
5392;DHT22;2719;53.624;9.786;2022-11-15T10:32:18;10.90;99.90
5392;DHT22;2719;53.624;9.786;2022-11-15T10:34:45;10.90;99.90
5392;DHT22;2719;53.624;9.786;2022-11-15T10:37:12;10.90;99.90
5392;DHT22;2719;53.624;9.786;2022-11-15T10:39:39;10.90;99.90
5392;DHT22;2719;53.624;9.786;2022-11-15T10:42:17;10.90;99.90
5392;DHT22;2719;53.624;9.786;2022-11-15T10:44:46;10.90;99.90
5392;DHT22;2719;53.624;9.786;2022-11-15T10:47:27;11.00;99.90
5392;DHT22;2719;53.624;9.786;2022-11-15T10:49:56;11.00;99.90
5392;DHT22;2719;53.624;9.786;2022-11-15T10:52:24;10.90;99.90
5392;DHT22;2719;53.624;9.786;2022-11-15T10:54:54;10.90;99.90
5392;DHT22;2719;53.624;9.786;2022-11-15T10:57:23;11.00;99.90
5392;DHT22;2719;53.624;9.786;2022-11-15T10:59:53;10.90;99.90
5392;DHT22;2719;53.624;9.786;2022-11-15T11:02:33;10.90;99.90
5392;DHT22;2719;53.624;9.786;2022-11-15T11:05:02;11.00;99.90
5392;DHT22;2719;53.624;9.786;2022-11-15T11:07:32;11.00;99.90
5392;DHT22;2719;53.624;9.786;2022-11-15T11:10:02;11.00;99.90
5392;DHT22;2719;53.624;9.786;2022-11-15T11:12:31;11.00;99.90
5392;DHT22;2719;53.624;9.786;2022-11-15T11:15:01;11.00;99.90
5392;DHT22;2719;53.624;9.786;2022-11-15T11:17:36;11.00;99.90
5392;DHT22;2719;53.624;9.786;2022-11-15T11:20:10;11.00;99.90
5392;DHT22;2719;53.624;9.786;2022-11-15T11:22:46;11.00;99.90
5392;DHT22;2719;53.624;9.786;2022-11-15T11:25:22;10.90;99.90
5392;DHT22;2719;53.624;9.786;2022-11-15T11:28:04;11.00;99.90
5392;DHT22;2719;53.624;9.786;2022-11-15T11:30:41;11.00;99.90
5392;DHT22;2719;53.624;9.786;2022-11-15T11:33:13;11.10;99.90
5392;DHT22;2719;53.624;9.786;2022-11-15T11:35:54;11.20;99.90
5392;DHT22;2719;53.624;9.786;2022-11-15T11:38:34;11.30;99.90
5392;DHT22;2719;53.624;9.786;2022-11-15T11:41:11;11.30;99.90
5392;DHT22;2719;53.624;9.786;2022-11-15T11:43:48;11.30;99.90
5392;DHT22;2719;53.624;9.786;2022-11-15T11:46:34;11.30;99.90
5392;DHT22;2719;53.624;9.786;2022-11-15T11:49:08;11.30;99.90
5392;DHT22;2719;53.624;9.786;2022-11-15T11:51:39;11.30;99.90
5392;DHT22;2719;53.624;9.786;2022-11-15T11:54:12;11.30;99.90
5392;DHT22;2719;53.624;9.786;2022-11-15T11:56:41;11.30;99.90
5392;DHT22;2719;53.624;9.786;2022-11-15T11:59:16;11.30;99.90
5392;DHT22;2719;53.624;9.786;2022-11-15T12:01:45;11.40;99.90
5392;DHT22;2719;53.624;9.786;2022-11-15T12:04:21;11.50;99.90
5392;DHT22;2719;53.624;9.786;2022-11-15T12:06:53;11.50;99.90
5392;DHT22;2719;53.624;9.786;2022-11-15T12:09:30;11.50;99.90
5392;DHT22;2719;53.624;9.786;2022-11-15T12:12:03;11.60;99.90
5392;DHT22;2719;53.624;9.786;2022-11-15T12:14:33;11.60;99.90
5392;DHT22;2719;53.624;9.786;2022-11-15T12:17:03;11.60;99.90
5392;DHT22;2719;53.624;9.786;2022-11-15T12:19:31;11.60;99.90
5392;DHT22;2719;53.624;9.786;2022-11-15T12:22:01;11.70;99.90
5392;DHT22;2719;53.624;9.786;2022-11-15T12:24:33;11.80;99.90
5392;DHT22;2719;53.624;9.786;2022-11-15T12:27:04;11.80;99.90
5392;DHT22;2719;53.624;9.786;2022-11-15T12:29:36;11.80;99.90
5392;DHT22;2719;53.624;9.786;2022-11-15T12:32:10;12.00;99.90
5392;DHT22;2719;53.624;9.786;2022-11-15T12:34:45;12.00;99.90
5392;DHT22;2719;53.624;9.786;2022-11-15T12:40:20;12.00;99.90
5392;DHT22;2719;53.624;9.786;2022-11-15T12:42:58;12.00;99.90
5392;DHT22;2719;53.624;9.786;2022-11-15T12:45:28;12.10;99.90
5392;DHT22;2719;53.624;9.786;2022-11-15T12:50:57;12.20;99.90
5392;DHT22;2719;53.624;9.786;2022-11-15T12:53:29;12.20;99.90
5392;DHT22;2719;53.624;9.786;2022-11-15T12:56:20;12.30;99.90
5392;DHT22;2719;53.624;9.786;2022-11-15T12:58:49;12.40;99.90
5392;DHT22;2719;53.624;9.786;2022-11-15T13:04:27;12.40;99.90
5392;DHT22;2719;53.624;9.786;2022-11-15T13:06:55;12.40;99.90
5392;DHT22;2719;53.624;9.786;2022-11-15T13:09:50;12.50;99.90
5392;DHT22;2719;53.624;9.786;2022-11-15T13:15:45;12.50;99.90
5392;DHT22;2719;53.624;9.786;2022-11-15T13:18:37;12.70;99.90
5392;DHT22;2719;53.624;9.786;2022-11-15T13:21:18;12.70;99.90
5392;DHT22;2719;53.624;9.786;2022-11-15T13:24:03;12.80;99.90
5392;DHT22;2719;53.624;9.786;2022-11-15T13:26:31;12.90;99.90
5392;DHT22;2719;53.624;9.786;2022-11-15T13:28:59;12.90;99.90
5392;DHT22;2719;53.624;9.786;2022-11-15T13:31:29;13.00;99.90
5392;DHT22;2719;53.624;9.786;2022-11-15T13:33:59;13.10;99.90
5392;DHT22;2719;53.624;9.786;2022-11-15T13:36:31;13.20;99.90
5392;DHT22;2719;53.624;9.786;2022-11-15T13:39:01;13.40;99.90
5392;DHT22;2719;53.624;9.786;2022-11-15T13:41:30;13.50;99.90
5392;DHT22;2719;53.624;9.786;2022-11-15T13:43:58;13.60;99.90
5392;DHT22;2719;53.624;9.786;2022-11-15T13:46:26;13.60;99.90
5392;DHT22;2719;53.624;9.786;2022-11-15T13:48:56;13.50;99.90
5392;DHT22;2719;53.624;9.786;2022-11-15T13:51:32;13.70;99.90
5392;DHT22;2719;53.624;9.786;2022-11-15T13:54:03;13.90;99.90
5392;DHT22;2719;53.624;9.786;2022-11-15T13:56:33;13.90;99.90
5392;DHT22;2719;53.624;9.786;2022-11-15T13:59:00;13.90;99.90
5392;DHT22;2719;53.624;9.786;2022-11-15T14:01:34;14.10;99.90
5392;DHT22;2719;53.624;9.786;2022-11-15T14:04:01;14.20;99.90
5392;DHT22;2719;53.624;9.786;2022-11-15T14:06:30;14.20;99.90
5392;DHT22;2719;53.624;9.786;2022-11-15T14:09:00;14.20;99.90
5392;DHT22;2719;53.624;9.786;2022-11-15T14:11:27;14.30;99.90
5392;DHT22;2719;53.624;9.786;2022-11-15T14:14:11;14.40;99.90
5392;DHT22;2719;53.624;9.786;2022-11-15T14:16:39;14.40;99.90
5392;DHT22;2719;53.624;9.786;2022-11-15T14:19:10;14.20;99.90
5392;DHT22;2719;53.624;9.786;2022-11-15T14:22:12;14.20;99.90
5392;DHT22;2719;53.624;9.786;2022-11-15T14:24:40;14.30;99.90
5392;DHT22;2719;53.624;9.786;2022-11-15T14:27:18;14.30;99.90
5392;DHT22;2719;53.624;9.786;2022-11-15T14:29:45;14.30;99.90
5392;DHT22;2719;53.624;9.786;2022-11-15T14:32:14;14.20;99.90
5392;DHT22;2719;53.624;9.786;2022-11-15T14:34:42;14.10;99.90
5392;DHT22;2719;53.624;9.786;2022-11-15T14:37:19;14.00;99.90
5392;DHT22;2719;53.624;9.786;2022-11-15T14:39:46;13.90;99.90
5392;DHT22;2719;53.624;9.786;2022-11-15T14:42:12;13.80;99.90
5392;DHT22;2719;53.624;9.786;2022-11-15T14:44:39;13.80;99.90
5392;DHT22;2719;53.624;9.786;2022-11-15T14:47:05;13.60;99.90
5392;DHT22;2719;53.624;9.786;2022-11-15T14:49:32;13.40;99.90
5392;DHT22;2719;53.624;9.786;2022-11-15T14:51:59;13.40;99.90
5392;DHT22;2719;53.624;9.786;2022-11-15T14:54:26;13.20;99.90
5392;DHT22;2719;53.624;9.786;2022-11-15T14:56:53;13.20;99.90
5392;DHT22;2719;53.624;9.786;2022-11-15T14:59:20;13.20;99.90
5392;DHT22;2719;53.624;9.786;2022-11-15T15:01:46;13.10;99.90
5392;DHT22;2719;53.624;9.786;2022-11-15T15:04:13;13.10;99.90
5392;DHT22;2719;53.624;9.786;2022-11-15T15:06:40;13.00;99.90
5392;DHT22;2719;53.624;9.786;2022-11-15T15:09:06;13.00;99.90
5392;DHT22;2719;53.624;9.786;2022-11-15T15:11:34;12.90;99.90
5392;DHT22;2719;53.624;9.786;2022-11-15T15:14:01;12.90;99.90
5392;DHT22;2719;53.624;9.786;2022-11-15T15:16:28;12.90;99.90
5392;DHT22;2719;53.624;9.786;2022-11-15T15:18:55;12.90;99.90
5392;DHT22;2719;53.624;9.786;2022-11-15T15:21:23;12.80;99.90
5392;DHT22;2719;53.624;9.786;2022-11-15T15:23:50;12.80;99.90
5392;DHT22;2719;53.624;9.786;2022-11-15T15:26:17;12.80;99.90
5392;DHT22;2719;53.624;9.786;2022-11-15T15:28:45;12.80;99.90
5392;DHT22;2719;53.624;9.786;2022-11-15T15:31:14;12.80;99.90
5392;DHT22;2719;53.624;9.786;2022-11-15T15:33:41;12.90;99.90
5392;DHT22;2719;53.624;9.786;2022-11-15T15:36:10;12.90;99.90
5392;DHT22;2719;53.624;9.786;2022-11-15T15:38:37;12.90;99.90
5392;DHT22;2719;53.624;9.786;2022-11-15T15:41:09;12.80;99.90
5392;DHT22;2719;53.624;9.786;2022-11-15T15:43:35;12.80;99.90
5392;DHT22;2719;53.624;9.786;2022-11-15T15:46:04;12.70;99.90
5392;DHT22;2719;53.624;9.786;2022-11-15T15:48:31;12.70;99.90
5392;DHT22;2719;53.624;9.786;2022-11-15T15:50:58;12.70;99.90
5392;DHT22;2719;53.624;9.786;2022-11-15T15:53:25;12.70;99.90
5392;DHT22;2719;53.624;9.786;2022-11-15T15:55:52;12.60;99.90
5392;DHT22;2719;53.624;9.786;2022-11-15T15:58:18;12.60;99.90
5392;DHT22;2719;53.624;9.786;2022-11-15T16:00:45;12.60;99.90
5392;DHT22;2719;53.624;9.786;2022-11-15T16:03:13;12.50;99.90
5392;DHT22;2719;53.624;9.786;2022-11-15T16:05:40;12.50;99.90
5392;DHT22;2719;53.624;9.786;2022-11-15T16:08:12;12.50;99.90
5392;DHT22;2719;53.624;9.786;2022-11-15T16:10:42;12.40;99.90
5392;DHT22;2719;53.624;9.786;2022-11-15T16:13:09;12.30;99.90
5392;DHT22;2719;53.624;9.786;2022-11-15T16:15:36;12.30;99.90
5392;DHT22;2719;53.624;9.786;2022-11-15T16:18:04;12.30;99.90
5392;DHT22;2719;53.624;9.786;2022-11-15T16:20:37;12.30;99.90
5392;DHT22;2719;53.624;9.786;2022-11-15T16:23:06;12.20;99.90
5392;DHT22;2719;53.624;9.786;2022-11-15T16:25:38;12.30;99.90
5392;DHT22;2719;53.624;9.786;2022-11-15T16:28:07;12.20;99.90
5392;DHT22;2719;53.624;9.786;2022-11-15T16:30:38;12.20;99.90
5392;DHT22;2719;53.624;9.786;2022-11-15T16:33:05;12.30;99.90
5392;DHT22;2719;53.624;9.786;2022-11-15T16:35:31;12.30;99.90
5392;DHT22;2719;53.624;9.786;2022-11-15T16:37:59;12.20;99.90
5392;DHT22;2719;53.624;9.786;2022-11-15T16:40:27;12.20;99.90
5392;DHT22;2719;53.624;9.786;2022-11-15T16:42:55;12.20;99.90